sensor_id;sensor_type;location;lat;lon;timestamp;P1;P2;P0
44871;PMS7003;30602;51.060;17.226;2022-12-13T00:01:53;38;33;20
44871;PMS7003;30602;51.060;17.226;2022-12-13T00:05:33;19;11;8
44871;PMS7003;30602;51.060;17.226;2022-12-13T00:09:04;20;14;9
44871;PMS7003;30602;51.060;17.226;2022-12-13T00:12:50;21;17;10
44871;PMS7003;30602;51.060;17.226;2022-12-13T00:16:29;18;16;11
44871;PMS7003;30602;51.060;17.226;2022-12-13T00:20:07;17;14;9
44871;PMS7003;30602;51.060;17.226;2022-12-13T00:23:45;12;12;9
44871;PMS7003;30602;51.060;17.226;2022-12-13T00:26:52;16;13;8
44871;PMS7003;30602;51.060;17.226;2022-12-13T00:30:05;18;11;7
44871;PMS7003;30602;51.060;17.226;2022-12-13T00:37:13;14;11;6
44871;PMS7003;30602;51.060;17.226;2022-12-13T00:44:41;13;12;8
44871;PMS7003;30602;51.060;17.226;2022-12-13T00:47:52;13;12;7
44871;PMS7003;30602;51.060;17.226;2022-12-13T00:51:42;19;14;9
44871;PMS7003;30602;51.060;17.226;2022-12-13T00:55:39;14;12;9
44871;PMS7003;30602;51.060;17.226;2022-12-13T00:59:04;13;10;7
44871;PMS7003;30602;51.060;17.226;2022-12-13T01:02:14;14;10;6
44871;PMS7003;30602;51.060;17.226;2022-12-13T01:05:43;14;11;8
44871;PMS7003;30602;51.060;17.226;2022-12-13T01:09:16;12;9;7
44871;PMS7003;30602;51.060;17.226;2022-12-13T01:12:45;11;9;5
44871;PMS7003;30602;51.060;17.226;2022-12-13T01:15:55;10;8;6
44871;PMS7003;30602;51.060;17.226;2022-12-13T01:19:25;14;11;7
44871;PMS7003;30602;51.060;17.226;2022-12-13T01:23:28;9;9;7
44871;PMS7003;30602;51.060;17.226;2022-12-13T01:26:40;16;9;7
44871;PMS7003;30602;51.060;17.226;2022-12-13T01:30:08;15;12;8
44871;PMS7003;30602;51.060;17.226;2022-12-13T01:33:46;19;16;9
44871;PMS7003;30602;51.060;17.226;2022-12-13T01:36:59;15;14;10
44871;PMS7003;30602;51.060;17.226;2022-12-13T01:40:10;15;10;8
44871;PMS7003;30602;51.060;17.226;2022-12-13T01:47:45;13;10;7
44871;PMS7003;30602;51.060;17.226;2022-12-13T01:51:35;14;9;6
44871;PMS7003;30602;51.060;17.226;2022-12-13T01:55:03;11;8;5
44871;PMS7003;30602;51.060;17.226;2022-12-13T01:58:21;16;11;7
44871;PMS7003;30602;51.060;17.226;2022-12-13T02:02:14;14;8;6
44871;PMS7003;30602;51.060;17.226;2022-12-13T02:08:58;21;14;10
44871;PMS7003;30602;51.060;17.226;2022-12-13T02:12:32;9;9;7
44871;PMS7003;30602;51.060;17.226;2022-12-13T02:35:34;9;8;6
44871;PMS7003;30602;51.060;17.226;2022-12-13T02:46:49;11;7;6
44871;PMS7003;30602;51.060;17.226;2022-12-13T02:50:12;10;7;6
44871;PMS7003;30602;51.060;17.226;2022-12-13T02:53:56;11;7;4
44871;PMS7003;30602;51.060;17.226;2022-12-13T02:57:38;11;7;6
44871;PMS7003;30602;51.060;17.226;2022-12-13T03:01:15;10;7;5
44871;PMS7003;30602;51.060;17.226;2022-12-13T03:05:20;8;8;5
44871;PMS7003;30602;51.060;17.226;2022-12-13T03:10:58;12;8;5
44871;PMS7003;30602;51.060;17.226;2022-12-13T03:14:12;14;8;4
44871;PMS7003;30602;51.060;17.226;2022-12-13T03:18:30;11;9;6
44871;PMS7003;30602;51.060;17.226;2022-12-13T03:21:46;6;4;4
44871;PMS7003;30602;51.060;17.226;2022-12-13T03:25:51;14;7;5
44871;PMS7003;30602;51.060;17.226;2022-12-13T03:29:24;10;6;4
44871;PMS7003;30602;51.060;17.226;2022-12-13T03:33:00;8;7;6
44871;PMS7003;30602;51.060;17.226;2022-12-13T03:36:40;17;9;7
44871;PMS7003;30602;51.060;17.226;2022-12-13T03:40:30;10;9;6
44871;PMS7003;30602;51.060;17.226;2022-12-13T03:44:17;8;8;6
44871;PMS7003;30602;51.060;17.226;2022-12-13T03:47:50;10;7;5
44871;PMS7003;30602;51.060;17.226;2022-12-13T03:51:24;10;6;5
44871;PMS7003;30602;51.060;17.226;2022-12-13T03:54:57;7;6;5
44871;PMS7003;30602;51.060;17.226;2022-12-13T03:58:43;10;6;5
44871;PMS7003;30602;51.060;17.226;2022-12-13T04:03:07;10;7;5
44871;PMS7003;30602;51.060;17.226;2022-12-13T04:06:17;6;5;4
44871;PMS7003;30602;51.060;17.226;2022-12-13T04:09:39;8;7;5
44871;PMS7003;30602;51.060;17.226;2022-12-13T04:13:06;9;5;4
44871;PMS7003;30602;51.060;17.226;2022-12-13T04:16:58;7;6;5
44871;PMS7003;30602;51.060;17.226;2022-12-13T04:20:56;7;5;3
44871;PMS7003;30602;51.060;17.226;2022-12-13T04:24:30;7;6;5
44871;PMS7003;30602;51.060;17.226;2022-12-13T04:28:34;8;7;5
44871;PMS7003;30602;51.060;17.226;2022-12-13T04:31:44;8;4;3
44871;PMS7003;30602;51.060;17.226;2022-12-13T04:35:48;13;10;6
44871;PMS7003;30602;51.060;17.226;2022-12-13T04:39:20;10;8;5
44871;PMS7003;30602;51.060;17.226;2022-12-13T04:43:03;9;5;4
44871;PMS7003;30602;51.060;17.226;2022-12-13T04:46:14;5;4;2
44871;PMS7003;30602;51.060;17.226;2022-12-13T04:49:28;5;3;3
44871;PMS7003;30602;51.060;17.226;2022-12-13T04:53:12;11;7;5
44871;PMS7003;30602;51.060;17.226;2022-12-13T04:56:24;15;11;6
44871;PMS7003;30602;51.060;17.226;2022-12-13T04:59:57;8;7;5
44871;PMS7003;30602;51.060;17.226;2022-12-13T05:03:07;9;7;5
44871;PMS7003;30602;51.060;17.226;2022-12-13T05:07:22;8;7;6
44871;PMS7003;30602;51.060;17.226;2022-12-13T05:11:27;17;15;11
44871;PMS7003;30602;51.060;17.226;2022-12-13T05:15:34;39;32;19
44871;PMS7003;30602;51.060;17.226;2022-12-13T05:19:30;19;14;9
44871;PMS7003;30602;51.060;17.226;2022-12-13T05:23:06;12;9;6
44871;PMS7003;30602;51.060;17.226;2022-12-13T05:26:15;13;6;5
44871;PMS7003;30602;51.060;17.226;2022-12-13T05:29:46;6;5;3
44871;PMS7003;30602;51.060;17.226;2022-12-13T05:33:19;8;7;5
44871;PMS7003;30602;51.060;17.226;2022-12-13T05:37:16;11;9;7
44871;PMS7003;30602;51.060;17.226;2022-12-13T05:40:53;14;10;8
44871;PMS7003;30602;51.060;17.226;2022-12-13T05:45:01;29;18;12
44871;PMS7003;30602;51.060;17.226;2022-12-13T05:48:44;24;19;11
44871;PMS7003;30602;51.060;17.226;2022-12-13T05:52:28;16;13;10
44871;PMS7003;30602;51.060;17.226;2022-12-13T05:56:19;12;10;7
44871;PMS7003;30602;51.060;17.226;2022-12-13T06:00:36;22;17;12
44871;PMS7003;30602;51.060;17.226;2022-12-13T06:04:16;33;21;12
44871;PMS7003;30602;51.060;17.226;2022-12-13T06:08:16;18;15;10
44871;PMS7003;30602;51.060;17.226;2022-12-13T06:12:13;18;11;9
44871;PMS7003;30602;51.060;17.226;2022-12-13T06:15:50;17;14;10
44871;PMS7003;30602;51.060;17.226;2022-12-13T06:19:24;20;16;12
44871;PMS7003;30602;51.060;17.226;2022-12-13T06:23:06;23;16;12
44871;PMS7003;30602;51.060;17.226;2022-12-13T06:27:25;26;21;11
44871;PMS7003;30602;51.060;17.226;2022-12-13T06:31:05;22;15;12
44871;PMS7003;30602;51.060;17.226;2022-12-13T06:34:55;35;24;15
44871;PMS7003;30602;51.060;17.226;2022-12-13T06:38:30;36;28;14
44871;PMS7003;30602;51.060;17.226;2022-12-13T06:42:07;39;27;18
44871;PMS7003;30602;51.060;17.226;2022-12-13T06:46:30;31;25;15
44871;PMS7003;30602;51.060;17.226;2022-12-13T06:50:27;27;23;13
44871;PMS7003;30602;51.060;17.226;2022-12-13T06:54:29;28;19;12
44871;PMS7003;30602;51.060;17.226;2022-12-13T07:02:15;23;21;15
44871;PMS7003;30602;51.060;17.226;2022-12-13T07:10:36;18;14;11
44871;PMS7003;30602;51.060;17.226;2022-12-13T07:14:23;24;20;13
44871;PMS7003;30602;51.060;17.226;2022-12-13T07:18:32;19;14;10
44871;PMS7003;30602;51.060;17.226;2022-12-13T07:22:38;26;21;13
44871;PMS7003;30602;51.060;17.226;2022-12-13T07:26:55;19;16;11
44871;PMS7003;30602;51.060;17.226;2022-12-13T07:30:38;25;20;13
44871;PMS7003;30602;51.060;17.226;2022-12-13T07:34:52;23;18;11
44871;PMS7003;30602;51.060;17.226;2022-12-13T07:38:52;17;15;10
44871;PMS7003;30602;51.060;17.226;2022-12-13T07:43:21;20;17;12
44871;PMS7003;30602;51.060;17.226;2022-12-13T07:46:56;28;23;14
44871;PMS7003;30602;51.060;17.226;2022-12-13T07:50:13;25;18;14
44871;PMS7003;30602;51.060;17.226;2022-12-13T07:53:27;35;29;19
44871;PMS7003;30602;51.060;17.226;2022-12-13T07:57:01;36;30;19
44871;PMS7003;30602;51.060;17.226;2022-12-13T08:01:56;31;27;17
44871;PMS7003;30602;51.060;17.226;2022-12-13T08:05:30;18;14;11
44871;PMS7003;30602;51.060;17.226;2022-12-13T08:09:35;21;17;12
44871;PMS7003;30602;51.060;17.226;2022-12-13T08:13:13;15;12;9
44871;PMS7003;30602;51.060;17.226;2022-12-13T08:16:35;22;15;11
44871;PMS7003;30602;51.060;17.226;2022-12-13T08:20:18;20;15;11
44871;PMS7003;30602;51.060;17.226;2022-12-13T08:23:32;22;19;12
44871;PMS7003;30602;51.060;17.226;2022-12-13T08:26:58;38;32;19
44871;PMS7003;30602;51.060;17.226;2022-12-13T08:31:31;27;22;13
44871;PMS7003;30602;51.060;17.226;2022-12-13T08:34:58;22;19;15
44871;PMS7003;30602;51.060;17.226;2022-12-13T08:41:32;24;17;13
44871;PMS7003;30602;51.060;17.226;2022-12-13T08:45:01;21;11;9
44871;PMS7003;30602;51.060;17.226;2022-12-13T08:48:13;15;13;11
44871;PMS7003;30602;51.060;17.226;2022-12-13T08:51:56;19;15;10
44871;PMS7003;30602;51.060;17.226;2022-12-13T08:56:05;20;14;9
44871;PMS7003;30602;51.060;17.226;2022-12-13T08:59:55;17;11;8
44871;PMS7003;30602;51.060;17.226;2022-12-13T09:03:29;13;10;6
44871;PMS7003;30602;51.060;17.226;2022-12-13T09:07:23;13;11;8
44871;PMS7003;30602;51.060;17.226;2022-12-13T09:11:01;6;5;4
44871;PMS7003;30602;51.060;17.226;2022-12-13T09:14:13;18;9;5
44871;PMS7003;30602;51.060;17.226;2022-12-13T09:18:01;12;10;8
44871;PMS7003;30602;51.060;17.226;2022-12-13T09:26:13;13;10;5
44871;PMS7003;30602;51.060;17.226;2022-12-13T09:29:24;11;10;8
44871;PMS7003;30602;51.060;17.226;2022-12-13T09:33:49;15;9;7
44871;PMS7003;30602;51.060;17.226;2022-12-13T09:37:21;22;15;10
44871;PMS7003;30602;51.060;17.226;2022-12-13T09:45:23;14;11;8
44871;PMS7003;30602;51.060;17.226;2022-12-13T09:48:55;20;14;11
44871;PMS7003;30602;51.060;17.226;2022-12-13T09:52:22;14;9;6
44871;PMS7003;30602;51.060;17.226;2022-12-13T09:55:58;17;12;9
44871;PMS7003;30602;51.060;17.226;2022-12-13T09:59:09;20;13;7
44871;PMS7003;30602;51.060;17.226;2022-12-13T10:03:28;20;16;11
44871;PMS7003;30602;51.060;17.226;2022-12-13T10:08:58;18;14;11
44871;PMS7003;30602;51.060;17.226;2022-12-13T10:17:12;14;13;9
44871;PMS7003;30602;51.060;17.226;2022-12-13T10:22:03;17;13;10
44871;PMS7003;30602;51.060;17.226;2022-12-13T10:25:52;17;13;8
44871;PMS7003;30602;51.060;17.226;2022-12-13T10:29:36;11;9;6
44871;PMS7003;30602;51.060;17.226;2022-12-13T10:33:31;9;6;5
44871;PMS7003;30602;51.060;17.226;2022-12-13T10:38:21;8;6;5
44871;PMS7003;30602;51.060;17.226;2022-12-13T10:42:17;11;7;5
44871;PMS7003;30602;51.060;17.226;2022-12-13T10:45:27;10;6;5
44871;PMS7003;30602;51.060;17.226;2022-12-13T10:49:36;16;10;9
44871;PMS7003;30602;51.060;17.226;2022-12-13T10:52:55;14;11;8
44871;PMS7003;30602;51.060;17.226;2022-12-13T10:56:13;11;8;6
44871;PMS7003;30602;51.060;17.226;2022-12-13T11:00:39;16;15;11
44871;PMS7003;30602;51.060;17.226;2022-12-13T11:10:31;13;9;5
44871;PMS7003;30602;51.060;17.226;2022-12-13T11:14:38;13;9;7
44871;PMS7003;30602;51.060;17.226;2022-12-13T11:19:02;9;8;7
44871;PMS7003;30602;51.060;17.226;2022-12-13T11:22:49;10;9;6
44871;PMS7003;30602;51.060;17.226;2022-12-13T11:26:16;15;12;9
44871;PMS7003;30602;51.060;17.226;2022-12-13T11:37:14;11;10;6
44871;PMS7003;30602;51.060;17.226;2022-12-13T11:44:54;18;16;11
44871;PMS7003;30602;51.060;17.226;2022-12-13T11:48:22;16;13;10
44871;PMS7003;30602;51.060;17.226;2022-12-13T11:52:13;14;12;8
44871;PMS7003;30602;51.060;17.226;2022-12-13T11:56:30;11;10;8
44871;PMS7003;30602;51.060;17.226;2022-12-13T11:59:46;19;14;9
44871;PMS7003;30602;51.060;17.226;2022-12-13T12:03:34;16;13;10
44871;PMS7003;30602;51.060;17.226;2022-12-13T12:15:49;21;20;12
44871;PMS7003;30602;51.060;17.226;2022-12-13T12:30:42;10;9;6
44871;PMS7003;30602;51.060;17.226;2022-12-13T12:56:17;16;13;11
44871;PMS7003;30602;51.060;17.226;2022-12-13T13:00:11;16;12;9
44871;PMS7003;30602;51.060;17.226;2022-12-13T13:04:28;18;15;11
44871;PMS7003;30602;51.060;17.226;2022-12-13T13:08:08;17;14;11
44871;PMS7003;30602;51.060;17.226;2022-12-13T13:12:01;23;20;12
44871;PMS7003;30602;51.060;17.226;2022-12-13T13:22:13;11;7;6
44871;PMS7003;30602;51.060;17.226;2022-12-13T13:25:53;15;12;9
44871;PMS7003;30602;51.060;17.226;2022-12-13T13:29:31;14;11;8
44871;PMS7003;30602;51.060;17.226;2022-12-13T13:32:56;17;12;9
44871;PMS7003;30602;51.060;17.226;2022-12-13T13:37:25;13;9;5
44871;PMS7003;30602;51.060;17.226;2022-12-13T14:30:09;16;11;9
44871;PMS7003;30602;51.060;17.226;2022-12-13T14:38:18;18;13;10
44871;PMS7003;30602;51.060;17.226;2022-12-13T14:46:35;25;23;15
44871;PMS7003;30602;51.060;17.226;2022-12-13T14:50:17;18;15;12
44871;PMS7003;30602;51.060;17.226;2022-12-13T14:58:02;49;42;28
44871;PMS7003;30602;51.060;17.226;2022-12-13T15:02:03;35;28;19
44871;PMS7003;30602;51.060;17.226;2022-12-13T15:09:24;22;18;11
44871;PMS7003;30602;51.060;17.226;2022-12-13T15:12:54;57;46;27
44871;PMS7003;30602;51.060;17.226;2022-12-13T15:16:45;93;66;33
44871;PMS7003;30602;51.060;17.226;2022-12-13T15:20:39;102;74;42
44871;PMS7003;30602;51.060;17.226;2022-12-13T15:24:35;143;105;52
44871;PMS7003;30602;51.060;17.226;2022-12-13T15:32:32;210;145;69
44871;PMS7003;30602;51.060;17.226;2022-12-13T15:35:47;167;126;59
44871;PMS7003;30602;51.060;17.226;2022-12-13T15:39:36;157;115;55
44871;PMS7003;30602;51.060;17.226;2022-12-13T15:43:21;70;51;30
44871;PMS7003;30602;51.060;17.226;2022-12-13T15:46:42;21;17;14
44871;PMS7003;30602;51.060;17.226;2022-12-13T15:49:59;22;17;11
44871;PMS7003;30602;51.060;17.226;2022-12-13T15:54:24;46;37;22
44871;PMS7003;30602;51.060;17.226;2022-12-13T15:58:52;68;51;30
44871;PMS7003;30602;51.060;17.226;2022-12-13T16:05:56;53;39;23
44871;PMS7003;30602;51.060;17.226;2022-12-13T16:09:14;48;38;25
44871;PMS7003;30602;51.060;17.226;2022-12-13T16:12:33;50;42;29
44871;PMS7003;30602;51.060;17.226;2022-12-13T16:19:47;52;42;26
44871;PMS7003;30602;51.060;17.226;2022-12-13T16:23:30;47;37;21
44871;PMS7003;30602;51.060;17.226;2022-12-13T16:26:46;37;30;19
44871;PMS7003;30602;51.060;17.226;2022-12-13T16:33:53;40;26;19
44871;PMS7003;30602;51.060;17.226;2022-12-13T16:37:47;43;32;18
44871;PMS7003;30602;51.060;17.226;2022-12-13T16:41:02;27;22;17
44871;PMS7003;30602;51.060;17.226;2022-12-13T16:44:46;40;31;19
44871;PMS7003;30602;51.060;17.226;2022-12-13T16:48:08;33;27;18
44871;PMS7003;30602;51.060;17.226;2022-12-13T16:51:21;38;28;18
44871;PMS7003;30602;51.060;17.226;2022-12-13T16:55:05;38;34;22
44871;PMS7003;30602;51.060;17.226;2022-12-13T16:58:59;42;28;19
44871;PMS7003;30602;51.060;17.226;2022-12-13T17:02:25;38;31;20
44871;PMS7003;30602;51.060;17.226;2022-12-13T17:06:21;40;31;21
44871;PMS7003;30602;51.060;17.226;2022-12-13T17:09:38;32;24;17
44871;PMS7003;30602;51.060;17.226;2022-12-13T17:13:37;36;31;20
44871;PMS7003;30602;51.060;17.226;2022-12-13T17:17:14;45;37;22
44871;PMS7003;30602;51.060;17.226;2022-12-13T17:21:08;40;29;19
44871;PMS7003;30602;51.060;17.226;2022-12-13T17:24:47;64;45;28
44871;PMS7003;30602;51.060;17.226;2022-12-13T17:28:00;61;47;30
44871;PMS7003;30602;51.060;17.226;2022-12-13T17:31:22;64;46;26
44871;PMS7003;30602;51.060;17.226;2022-12-13T17:34:56;60;43;27
44871;PMS7003;30602;51.060;17.226;2022-12-13T17:39:20;54;38;22
44871;PMS7003;30602;51.060;17.226;2022-12-13T17:43:22;40;33;20
44871;PMS7003;30602;51.060;17.226;2022-12-13T17:47:01;47;33;20
44871;PMS7003;30602;51.060;17.226;2022-12-13T17:51:11;53;43;25
44871;PMS7003;30602;51.060;17.226;2022-12-13T17:54:28;52;37;23
44871;PMS7003;30602;51.060;17.226;2022-12-13T17:58:22;33;22;7
44871;PMS7003;30602;51.060;17.226;2022-12-13T18:02:01;47;37;22
44871;PMS7003;30602;51.060;17.226;2022-12-13T18:05:14;38;32;21
44871;PMS7003;30602;51.060;17.226;2022-12-13T18:08:36;49;36;23
44871;PMS7003;30602;51.060;17.226;2022-12-13T18:12:36;50;40;27
44871;PMS7003;30602;51.060;17.226;2022-12-13T18:16:14;43;35;19
44871;PMS7003;30602;51.060;17.226;2022-12-13T18:20:10;41;36;23
44871;PMS7003;30602;51.060;17.226;2022-12-13T18:23:26;57;44;27
44871;PMS7003;30602;51.060;17.226;2022-12-13T18:27:16;56;42;27
44871;PMS7003;30602;51.060;17.226;2022-12-13T18:31:17;56;44;26
44871;PMS7003;30602;51.060;17.226;2022-12-13T18:34:53;61;48;27
44871;PMS7003;30602;51.060;17.226;2022-12-13T18:38:03;60;43;29
44871;PMS7003;30602;51.060;17.226;2022-12-13T18:41:51;65;46;28
44871;PMS7003;30602;51.060;17.226;2022-12-13T18:45:33;58;43;27
44871;PMS7003;30602;51.060;17.226;2022-12-13T18:49:09;54;44;27
44871;PMS7003;30602;51.060;17.226;2022-12-13T18:52:47;49;38;25
44871;PMS7003;30602;51.060;17.226;2022-12-13T18:56:04;57;43;26
44871;PMS7003;30602;51.060;17.226;2022-12-13T18:59:24;55;38;24
44871;PMS7003;30602;51.060;17.226;2022-12-13T19:02:57;43;38;26
44871;PMS7003;30602;51.060;17.226;2022-12-13T19:06:27;49;39;24
44871;PMS7003;30602;51.060;17.226;2022-12-13T19:10:17;56;43;26
44871;PMS7003;30602;51.060;17.226;2022-12-13T19:13:43;42;34;20
44871;PMS7003;30602;51.060;17.226;2022-12-13T19:17:31;60;45;28
44871;PMS7003;30602;51.060;17.226;2022-12-13T19:21:06;46;34;21
44871;PMS7003;30602;51.060;17.226;2022-12-13T19:25:30;49;41;24
44871;PMS7003;30602;51.060;17.226;2022-12-13T19:29:05;46;37;22
44871;PMS7003;30602;51.060;17.226;2022-12-13T19:32:52;51;38;25
44871;PMS7003;30602;51.060;17.226;2022-12-13T19:36:12;58;44;27
44871;PMS7003;30602;51.060;17.226;2022-12-13T19:39:29;61;47;28
44871;PMS7003;30602;51.060;17.226;2022-12-13T19:43:09;60;44;28
44871;PMS7003;30602;51.060;17.226;2022-12-13T19:46:29;55;44;25
44871;PMS7003;30602;51.060;17.226;2022-12-13T19:50:04;60;41;25
44871;PMS7003;30602;51.060;17.226;2022-12-13T19:53:57;45;40;27
44871;PMS7003;30602;51.060;17.226;2022-12-13T19:58:01;57;43;27
44871;PMS7003;30602;51.060;17.226;2022-12-13T20:01:47;60;45;27
44871;PMS7003;30602;51.060;17.226;2022-12-13T20:05:23;55;41;25
44871;PMS7003;30602;51.060;17.226;2022-12-13T20:08:34;53;42;27
44871;PMS7003;30602;51.060;17.226;2022-12-13T20:11:46;56;43;27
44871;PMS7003;30602;51.060;17.226;2022-12-13T20:15:00;54;41;27
44871;PMS7003;30602;51.060;17.226;2022-12-13T20:19:39;68;49;29
44871;PMS7003;30602;51.060;17.226;2022-12-13T20:22:55;62;43;27
44871;PMS7003;30602;51.060;17.226;2022-12-13T20:26:28;58;45;30
44871;PMS7003;30602;51.060;17.226;2022-12-13T20:29:45;64;46;28
44871;PMS7003;30602;51.060;17.226;2022-12-13T20:33:03;65;50;30
44871;PMS7003;30602;51.060;17.226;2022-12-13T20:37:18;67;48;29
44871;PMS7003;30602;51.060;17.226;2022-12-13T20:40:29;62;50;31
44871;PMS7003;30602;51.060;17.226;2022-12-13T20:43:52;61;46;30
44871;PMS7003;30602;51.060;17.226;2022-12-13T20:47:17;72;53;32
44871;PMS7003;30602;51.060;17.226;2022-12-13T20:50:48;74;55;33
44871;PMS7003;30602;51.060;17.226;2022-12-13T20:54:21;79;58;34
44871;PMS7003;30602;51.060;17.226;2022-12-13T20:57:42;75;56;34
44871;PMS7003;30602;51.060;17.226;2022-12-13T21:00:57;81;58;36
44871;PMS7003;30602;51.060;17.226;2022-12-13T21:04:39;83;61;38
44871;PMS7003;30602;51.060;17.226;2022-12-13T21:07:55;88;65;38
44871;PMS7003;30602;51.060;17.226;2022-12-13T21:11:30;83;60;39
44871;PMS7003;30602;51.060;17.226;2022-12-13T21:15:31;87;63;40
44871;PMS7003;30602;51.060;17.226;2022-12-13T21:19:26;77;59;36
44871;PMS7003;30602;51.060;17.226;2022-12-13T21:22:40;82;58;35
44871;PMS7003;30602;51.060;17.226;2022-12-13T21:26:23;68;51;31
44871;PMS7003;30602;51.060;17.226;2022-12-13T21:30:03;77;57;35
44871;PMS7003;30602;51.060;17.226;2022-12-13T21:33:59;76;58;35
44871;PMS7003;30602;51.060;17.226;2022-12-13T21:37:47;84;59;37
44871;PMS7003;30602;51.060;17.226;2022-12-13T21:41:02;69;52;31
44871;PMS7003;30602;51.060;17.226;2022-12-13T21:44:48;76;55;34
44871;PMS7003;30602;51.060;17.226;2022-12-13T21:47:59;72;54;36
44871;PMS7003;30602;51.060;17.226;2022-12-13T21:52:07;77;56;35
44871;PMS7003;30602;51.060;17.226;2022-12-13T21:56:19;83;61;36
44871;PMS7003;30602;51.060;17.226;2022-12-13T22:00:22;88;67;40
44871;PMS7003;30602;51.060;17.226;2022-12-13T22:04:34;88;62;38
44871;PMS7003;30602;51.060;17.226;2022-12-13T22:07:50;82;59;39
44871;PMS7003;30602;51.060;17.226;2022-12-13T22:11:05;72;55;31
44871;PMS7003;30602;51.060;17.226;2022-12-13T22:14:54;79;57;37
44871;PMS7003;30602;51.060;17.226;2022-12-13T22:19:08;68;47;28
44871;PMS7003;30602;51.060;17.226;2022-12-13T22:26:53;62;46;30
44871;PMS7003;30602;51.060;17.226;2022-12-13T22:30:16;68;52;31
44871;PMS7003;30602;51.060;17.226;2022-12-13T22:33:35;68;51;32
44871;PMS7003;30602;51.060;17.226;2022-12-13T22:37:09;68;51;30
44871;PMS7003;30602;51.060;17.226;2022-12-13T22:40:43;73;53;34
44871;PMS7003;30602;51.060;17.226;2022-12-13T22:44:27;66;47;30
44871;PMS7003;30602;51.060;17.226;2022-12-13T22:48:25;71;52;32
44871;PMS7003;30602;51.060;17.226;2022-12-13T22:52:24;70;55;32
44871;PMS7003;30602;51.060;17.226;2022-12-13T22:59:44;75;56;35
44871;PMS7003;30602;51.060;17.226;2022-12-13T23:03:01;77;56;33
44871;PMS7003;30602;51.060;17.226;2022-12-13T23:06:16;65;48;30
44871;PMS7003;30602;51.060;17.226;2022-12-13T23:10:36;76;56;36
44871;PMS7003;30602;51.060;17.226;2022-12-13T23:14:57;79;58;35
44871;PMS7003;30602;51.060;17.226;2022-12-13T23:18:14;73;50;30
44871;PMS7003;30602;51.060;17.226;2022-12-13T23:21:27;66;47;31
44871;PMS7003;30602;51.060;17.226;2022-12-13T23:24:45;76;54;32
44871;PMS7003;30602;51.060;17.226;2022-12-13T23:28:48;79;55;35
44871;PMS7003;30602;51.060;17.226;2022-12-13T23:32:28;63;47;26
44871;PMS7003;30602;51.060;17.226;2022-12-13T23:35:55;71;48;29
44871;PMS7003;30602;51.060;17.226;2022-12-13T23:39:49;66;47;30
44871;PMS7003;30602;51.060;17.226;2022-12-13T23:43:38;67;51;31
44871;PMS7003;30602;51.060;17.226;2022-12-13T23:47:13;65;50;31
44871;PMS7003;30602;51.060;17.226;2022-12-13T23:51:13;68;50;28
44871;PMS7003;30602;51.060;17.226;2022-12-13T23:54:59;61;49;29
44871;PMS7003;30602;51.060;17.226;2022-12-13T23:58:46;68;51;31
